Terminal Aerodrome Forecast
Issued by NWS

Home | Current Version | Previous Version | Text Only | Print | Product List | Glossary Off
Versions: 1 2 3 4 5 6 7 8 9 10 11 12 13 14 15

000
FTUS43 KGRB 201100
TAFCWA
TAF
KCWA 201138Z 2012/2112 32007KT P6SM SCT030 BKN050
     FM201500 32010G15KT P6SM BKN025 BKN040
     FM210000 35008KT P6SM BKN030
     FM210800 36005KT P6SM SCT035=

USA.gov is the U.S. government's official web portal to all federal, state and local government web resources and services.